createdAt,value
2023-02-16T00:02:16.563Z,101254.01
2023-02-16T00:04:50.800Z,101254.41
2023-02-16T00:07:24.599Z,101254.59
2023-02-16T00:09:58.400Z,101258.81
2023-02-16T00:12:49.764Z,101258.61
2023-02-16T00:15:34.599Z,101253.62
2023-02-16T00:18:18.652Z,101248.67
2023-02-16T00:20:53.012Z,101240.83
2023-02-16T00:23:26.436Z,101232.41
2023-02-16T00:26:22.153Z,101231.23
2023-02-16T00:28:59.140Z,101223.81
2023-02-16T00:31:33.377Z,101223.34
2023-02-16T00:34:35.083Z,101216.66
2023-02-16T00:37:19.555Z,101213.48
2023-02-16T00:39:55.303Z,101210.16
2023-02-16T00:42:33.813Z,101208.48
2023-02-16T00:45:22.197Z,101205.89
2023-02-16T00:47:57.567Z,101201.63
2023-02-16T00:50:34.380Z,101198.53
2023-02-16T00:53:18.459Z,101195.95
2023-02-16T00:55:56.578Z,101190.45
2023-02-16T00:58:34.045Z,101186.91
2023-02-16T01:01:15.269Z,101188.86
2023-02-16T01:03:49.625Z,101186.71
2023-02-16T01:06:40.720Z,101184.91
2023-02-16T01:09:35.823Z,101179.41
2023-02-16T01:12:15.989Z,101175.48
2023-02-16T01:14:53.039Z,101178.45
2023-02-16T01:17:29.201Z,101177.61
2023-02-16T01:20:02.747Z,101173.90
2023-02-16T01:22:36.741Z,101172.45
2023-02-16T01:25:15.035Z,101168.49
2023-02-16T01:27:49.532Z,101166.19
2023-02-16T01:30:25.050Z,101163.73
2023-02-16T01:32:58.693Z,101162.56
2023-02-16T01:35:36.516Z,101163.23
2023-02-16T01:38:18.581Z,101160.77
2023-02-16T01:41:02.617Z,101156.23
2023-02-16T01:43:46.999Z,101151.23
2023-02-16T01:46:27.778Z,101149.17
2023-02-16T01:49:03.143Z,101143.58
2023-02-16T01:51:44.577Z,101141.73
2023-02-16T01:54:29.162Z,101142.04
2023-02-16T01:57:08.054Z,101137.65
2023-02-16T02:00:06.747Z,101134.93
2023-02-16T02:02:51.275Z,101135.23
2023-02-16T02:05:37.236Z,101130.34
2023-02-16T02:08:19.066Z,101128.40
2023-02-16T02:11:03.247Z,101122.90
2023-02-16T02:13:47.179Z,101125.14
2023-02-16T02:16:23.574Z,101126.41
2023-02-16T02:18:58.096Z,101125.04
2023-02-16T02:22:15.439Z,101119.16
2023-02-16T02:25:24.542Z,101117.89
2023-02-16T02:28:04.683Z,101113.33
2023-02-16T02:30:49.659Z,101108.39
2023-02-16T02:33:38.498Z,101105.13
2023-02-16T02:36:24.089Z,101103.38
2023-02-16T02:39:05.926Z,101106.16
2023-02-16T02:42:07.512Z,101104.61
2023-02-16T02:44:55.169Z,101101.06
2023-02-16T02:47:41.612Z,101096.58
2023-02-16T02:51:10.506Z,101096.15
2023-02-16T02:53:49.450Z,101094.13
2023-02-16T02:56:42.245Z,101092.89
2023-02-16T02:59:33.850Z,101086.24
2023-02-16T03:02:08.313Z,101078.04
2023-02-16T03:04:53.700Z,101077.34
2023-02-16T03:07:47.239Z,101077.18
2023-02-16T03:10:42.375Z,101071.34
2023-02-16T03:13:26.374Z,101065.71
2023-02-16T03:16:04.063Z,101060.95
2023-02-16T03:19:16.240Z,101052.73
2023-02-16T03:22:20.072Z,101046.66
2023-02-16T03:25:20.639Z,101042.92
2023-02-16T03:28:14.954Z,101043.09
2023-02-16T03:30:49.535Z,101047.23
2023-02-16T03:33:24.275Z,101048.41
2023-02-16T03:36:12.129Z,101048.20
2023-02-16T03:38:46.122Z,101046.85
2023-02-16T03:41:20.100Z,101045.69
2023-02-16T03:43:54.459Z,101040.20
2023-02-16T03:46:30.605Z,101039.00
2023-02-16T03:49:04.738Z,101039.97
2023-02-16T03:51:41.803Z,101032.75
2023-02-16T03:54:15.456Z,101026.37
2023-02-16T03:56:49.327Z,101014.87
2023-02-16T03:59:23.249Z,101012.70
2023-02-16T04:01:56.806Z,101011.79
2023-02-16T04:04:31.121Z,101010.41
2023-02-16T04:07:05.159Z,101008.81
2023-02-16T04:09:38.760Z,101010.39
2023-02-16T04:12:30.639Z,101009.17
2023-02-16T04:15:04.521Z,101010.12
2023-02-16T04:17:41.627Z,101000.80
2023-02-16T04:20:19.304Z,100998.25
2023-02-16T04:23:03.064Z,101000.50
2023-02-16T04:25:37.429Z,100998.59
2023-02-16T04:28:11.172Z,100997.85
2023-02-16T04:30:55.066Z,101000.05
2023-02-16T04:33:28.892Z,101001.16
2023-02-16T04:36:02.210Z,100999.29
2023-02-16T04:38:36.888Z,100995.84
2023-02-16T04:41:10.738Z,100997.39
2023-02-16T04:43:44.405Z,100994.41
2023-02-16T04:46:19.575Z,100989.45
2023-02-16T04:49:13.896Z,100993.17
2023-02-16T04:51:47.960Z,100994.34
2023-02-16T04:54:33.337Z,100991.13
2023-02-16T04:57:07.643Z,100992.96
2023-02-16T04:59:42.111Z,100992.61
2023-02-16T05:02:15.816Z,100994.66
2023-02-16T05:04:49.827Z,100994.73
2023-02-16T05:07:44.414Z,100987.20
2023-02-16T05:10:18.818Z,100988.86
2023-02-16T05:13:10.400Z,100988.52
2023-02-16T05:15:45.439Z,100988.50
2023-02-16T05:18:18.814Z,100987.94
2023-02-16T05:21:21.062Z,100986.22
2023-02-16T05:23:55.095Z,100977.11
2023-02-16T05:26:32.549Z,100977.69
2023-02-16T05:29:07.044Z,100977.21
2023-02-16T05:31:41.196Z,100977.66
2023-02-16T05:34:15.258Z,100982.88
2023-02-16T05:37:00.044Z,100981.43
2023-02-16T05:39:44.847Z,100972.05
2023-02-16T05:42:30.526Z,100971.40
2023-02-16T05:45:07.562Z,100968.23
2023-02-16T05:47:41.313Z,100971.27
2023-02-16T05:50:15.709Z,100976.91
2023-02-16T05:52:49.324Z,100977.41
2023-02-16T05:55:23.102Z,100975.07
2023-02-16T05:57:56.439Z,100964.61
2023-02-16T06:00:34.172Z,100957.77
2023-02-16T06:03:10.565Z,100959.11
2023-02-16T06:06:05.319Z,100960.85
2023-02-16T06:08:40.044Z,100963.52
2023-02-16T06:11:27.689Z,100967.38
2023-02-16T06:14:03.304Z,100978.16
2023-02-16T06:16:37.894Z,100975.17
2023-02-16T06:19:11.783Z,100966.30
2023-02-16T06:21:49.190Z,100960.72
2023-02-16T06:24:22.991Z,100963.10
2023-02-16T06:26:57.331Z,100965.05
2023-02-16T06:29:31.160Z,100961.25
2023-02-16T06:32:08.193Z,100958.88
2023-02-16T06:34:42.358Z,100954.65
2023-02-16T06:37:16.397Z,100955.11
2023-02-16T06:39:50.406Z,100949.98
2023-02-16T06:42:23.993Z,100952.55
2023-02-16T06:44:57.543Z,100952.98
2023-02-16T06:47:31.121Z,100954.09
2023-02-16T06:50:05.565Z,100951.92
2023-02-16T06:52:39.303Z,100951.74
2023-02-16T06:55:13.703Z,100951.11
2023-02-16T06:57:47.024Z,100949.42
2023-02-16T07:00:21.799Z,100948.73
2023-02-16T07:02:55.274Z,100952.08
2023-02-16T07:05:29.088Z,100956.83
2023-02-16T07:08:03.271Z,100951.73
2023-02-16T07:10:57.175Z,100947.08
2023-02-16T07:13:31.254Z,100943.16
2023-02-16T07:16:05.698Z,100938.00
2023-02-16T07:18:39.623Z,100933.27
2023-02-16T07:21:16.904Z,100937.73
2023-02-16T07:23:50.766Z,100936.20
2023-02-16T07:26:24.372Z,100942.57
2023-02-16T07:28:58.053Z,100942.41
2023-02-16T07:31:31.981Z,100936.77
2023-02-16T07:34:05.770Z,100935.77
2023-02-16T07:36:39.773Z,100929.06
2023-02-16T07:39:13.295Z,100925.25
2023-02-16T07:41:50.166Z,100924.36
2023-02-16T07:44:25.295Z,100923.04
2023-02-16T07:46:59.077Z,100923.66
2023-02-16T07:49:33.235Z,100924.17
2023-02-16T07:52:07.270Z,100919.70
2023-02-16T07:54:41.102Z,100916.31
2023-02-16T07:57:14.938Z,100909.77
2023-02-16T07:59:49.189Z,100908.17
2023-02-16T08:02:27.898Z,100907.55
2023-02-16T08:05:02.217Z,100907.70
2023-02-16T08:07:35.646Z,100902.98
2023-02-16T08:10:10.927Z,100898.27
2023-02-16T08:12:44.898Z,100890.66
2023-02-16T08:15:19.251Z,100887.20
2023-02-16T08:17:53.056Z,100883.84
2023-02-16T08:20:45.127Z,100884.77
2023-02-16T08:23:31.855Z,100883.76
2023-02-16T08:26:11.452Z,100886.41
2023-02-16T08:28:46.326Z,100889.70
2023-02-16T08:31:23.566Z,100894.27
2023-02-16T08:34:03.394Z,100893.98
2023-02-16T08:36:38.981Z,100895.92
2023-02-16T08:39:35.712Z,100897.89
2023-02-16T08:42:13.144Z,100899.93
2023-02-16T08:44:47.509Z,100903.76
2023-02-16T08:47:21.891Z,100904.05
2023-02-16T08:49:55.874Z,100905.14
2023-02-16T08:52:30.117Z,100902.61
2023-02-16T08:55:03.907Z,100903.20
2023-02-16T08:57:38.481Z,100901.61
2023-02-16T09:00:36.201Z,100898.89
2023-02-16T09:03:10.476Z,100895.55
2023-02-16T09:05:47.085Z,100895.94
2023-02-16T09:08:22.054Z,100891.92
2023-02-16T09:11:08.963Z,100892.52
2023-02-16T09:14:04.145Z,100889.95
2023-02-16T09:16:47.363Z,100891.92
2023-02-16T09:19:43.834Z,100889.31
2023-02-16T09:22:39.595Z,100891.48
2023-02-16T09:25:14.043Z,100891.98
2023-02-16T09:27:51.655Z,100892.48
2023-02-16T09:30:28.334Z,100890.35
2023-02-16T09:33:02.505Z,100887.85
2023-02-16T09:35:57.169Z,100891.36
2023-02-16T09:38:30.729Z,100892.11
2023-02-16T09:41:19.150Z,100893.25
2023-02-16T09:43:57.804Z,100893.76
2023-02-16T09:46:33.226Z,100897.63
2023-02-16T09:49:08.818Z,100898.61
2023-02-16T09:51:46.268Z,100889.94
2023-02-16T09:54:35.021Z,100885.51
2023-02-16T09:57:34.702Z,100889.09
2023-02-16T10:00:15.496Z,100892.95
2023-02-16T10:02:55.088Z,100891.90
2023-02-16T10:05:36.467Z,100891.42
2023-02-16T10:08:15.004Z,100892.78
2023-02-16T10:10:55.305Z,100886.73
2023-02-16T10:13:41.742Z,100883.90
2023-02-16T10:16:24.490Z,100881.89
2023-02-16T10:19:03.886Z,100876.86
2023-02-16T10:21:38.034Z,100876.37
2023-02-16T10:24:14.992Z,100876.28
2023-02-16T10:26:53.082Z,100874.08
2023-02-16T10:29:47.192Z,100872.62
2023-02-16T10:32:31.431Z,100870.10
2023-02-16T10:35:23.514Z,100861.79
2023-02-16T10:38:07.086Z,100864.08
2023-02-16T10:40:51.174Z,100859.55
2023-02-16T10:43:39.473Z,100849.01
2023-02-16T10:46:16.689Z,100842.27
2023-02-16T10:48:54.662Z,100837.41
2023-02-16T10:51:33.612Z,100834.13
2023-02-16T10:54:12.577Z,100827.64
2023-02-16T10:56:54.578Z,100822.79
2023-02-16T10:59:38.907Z,100821.23
2023-02-16T11:02:25.349Z,100814.78
2023-02-16T11:05:26.570Z,100812.02
2023-02-16T11:08:02.671Z,100808.23
2023-02-16T11:10:42.906Z,100809.55
2023-02-16T11:13:27.706Z,100806.53
2023-02-16T11:16:07.271Z,100803.91
2023-02-16T11:19:05.363Z,100807.94
2023-02-16T11:21:51.252Z,100797.44
2023-02-16T11:24:30.857Z,100794.41
2023-02-16T11:27:25.378Z,100796.20
2023-02-16T11:30:22.997Z,100791.75
2023-02-16T11:33:01.269Z,100794.61
2023-02-16T11:35:47.403Z,100794.83
2023-02-16T11:38:38.282Z,100798.52
2023-02-16T11:41:26.357Z,100799.48
2023-02-16T11:44:04.471Z,100793.96
2023-02-16T11:46:44.227Z,100791.55
2023-02-16T11:49:40.222Z,100792.49
2023-02-16T11:52:32.271Z,100787.54
2023-02-16T11:55:06.572Z,100785.33
2023-02-16T11:57:43.646Z,100785.67
2023-02-16T12:00:23.533Z,100789.13
2023-02-16T12:03:18.551Z,100785.49
2023-02-16T12:06:08.448Z,100789.27
2023-02-16T12:09:00.364Z,100788.79
2023-02-16T12:12:03.396Z,100782.27
2023-02-16T12:14:49.201Z,100779.47
2023-02-16T12:17:42.744Z,100776.08
2023-02-16T12:20:32.463Z,100774.20
2023-02-16T12:23:20.516Z,100773.47
2023-02-16T12:26:06.509Z,100772.95
2023-02-16T12:28:50.365Z,100769.11
2023-02-16T12:31:31.618Z,100774.95
2023-02-16T12:34:22.929Z,100771.34
2023-02-16T12:37:06.515Z,100772.40
2023-02-16T12:39:51.766Z,100771.27
2023-02-16T12:42:41.395Z,100771.41
2023-02-16T12:45:19.624Z,100766.92
2023-02-16T12:47:57.769Z,100768.69
2023-02-16T12:50:34.119Z,100761.67
2023-02-16T12:53:22.442Z,100764.09
2023-02-16T12:56:01.641Z,100764.17
2023-02-16T12:58:39.624Z,100760.70
2023-02-16T13:01:19.308Z,100759.55
2023-02-16T13:03:59.002Z,100755.44
2023-02-16T13:06:40.647Z,100754.44
2023-02-16T13:09:25.853Z,100754.09
2023-02-16T13:12:03.682Z,100753.02
2023-02-16T13:14:43.805Z,100751.04
2023-02-16T13:17:22.983Z,100745.02
2023-02-16T13:19:57.408Z,100746.50
2023-02-16T13:22:56.355Z,100743.07
2023-02-16T13:25:49.476Z,100741.52
2023-02-16T13:28:48.326Z,100739.00
2023-02-16T13:31:33.451Z,100737.91
2023-02-16T13:34:49.055Z,100739.02
2023-02-16T13:37:33.705Z,100739.16
2023-02-16T13:40:54.014Z,100735.73
2023-02-16T13:43:35.804Z,100731.22
2023-02-16T13:46:16.090Z,100736.79
2023-02-16T13:48:54.980Z,100735.46
2023-02-16T13:51:31.323Z,100729.14
2023-02-16T13:54:06.804Z,100726.64
2023-02-16T13:56:44.009Z,100725.98
2023-02-16T14:00:00.480Z,100727.15
2023-02-16T14:02:56.298Z,100728.66
2023-02-16T14:05:41.348Z,100728.98
2023-02-16T14:08:24.647Z,100729.12
2023-02-16T14:11:04.316Z,100729.15
2023-02-16T14:13:52.563Z,100728.79
2023-02-16T14:16:40.421Z,100733.05
2023-02-16T14:19:26.466Z,100734.77
2023-02-16T14:22:11.662Z,100732.92
2023-02-16T14:24:52.814Z,100734.59
2023-02-16T14:27:48.188Z,100732.84
2023-02-16T14:30:52.417Z,100729.25
2023-02-16T14:33:40.795Z,100737.02
2023-02-16T14:36:19.331Z,100733.92
2023-02-16T14:38:58.778Z,100737.54
2023-02-16T14:41:35.149Z,100742.27
2023-02-16T14:44:34.846Z,100745.39
2023-02-16T14:47:22.911Z,100744.75
2023-02-16T14:50:16.057Z,100744.17
2023-02-16T14:53:16.840Z,100740.77
2023-02-16T14:56:19.898Z,100738.84
2023-02-16T14:59:07.086Z,100740.66
2023-02-16T15:01:48.519Z,100741.88
2023-02-16T15:04:35.696Z,100739.74
2023-02-16T15:07:09.776Z,100739.44
2023-02-16T15:09:45.670Z,100739.42
2023-02-16T15:12:25.939Z,100739.30
2023-02-16T15:15:03.480Z,100737.60
2023-02-16T15:17:40.845Z,100739.58
2023-02-16T15:20:35.577Z,100737.57
2023-02-16T15:23:19.357Z,100741.41
2023-02-16T15:26:02.760Z,100737.75
2023-02-16T15:28:38.780Z,100733.27
2023-02-16T15:31:24.081Z,100734.80
2023-02-16T15:34:12.734Z,100738.33
2023-02-16T15:36:48.638Z,100736.33
2023-02-16T15:39:43.690Z,100732.08
2023-02-16T15:42:27.573Z,100731.42
2023-02-16T15:44:59.726Z,100730.02
2023-02-16T15:47:35.731Z,100730.04
2023-02-16T15:50:20.627Z,100728.89
2023-02-16T15:53:00.583Z,100727.73
2023-02-16T15:55:43.606Z,100726.40
2023-02-16T15:58:19.866Z,100726.02
2023-02-16T16:00:58.430Z,100722.96
2023-02-16T16:03:47.054Z,100717.16
2023-02-16T16:06:23.830Z,100718.25
2023-02-16T16:09:01.210Z,100720.14
2023-02-16T16:11:36.017Z,100722.15
2023-02-16T16:14:16.903Z,100720.92
2023-02-16T16:16:51.946Z,100721.67
2023-02-16T16:19:34.057Z,100725.69
2023-02-16T16:22:43.413Z,100729.42
2023-02-16T16:25:45.550Z,100726.24
2023-02-16T16:28:39.975Z,100722.21
2023-02-16T16:31:18.310Z,100716.34
2023-02-16T16:34:02.977Z,100714.29
2023-02-16T16:36:50.294Z,100713.48
2023-02-16T16:39:31.541Z,100711.77
2023-02-16T16:42:22.159Z,100709.39
2023-02-16T16:45:36.484Z,100706.43
2023-02-16T16:48:20.238Z,100709.02
2023-02-16T16:51:13.513Z,100709.84
2023-02-16T16:54:40.531Z,100707.89
2023-02-16T16:57:19.188Z,100703.08
2023-02-16T16:59:55.605Z,100698.63
2023-02-16T17:02:34.269Z,100695.92
2023-02-16T17:05:28.769Z,100696.30
2023-02-16T17:08:29.548Z,100698.07
2023-02-16T17:11:10.107Z,100699.13
2023-02-16T17:13:50.247Z,100695.77
2023-02-16T17:16:30.250Z,100693.02
2023-02-16T17:19:28.465Z,100692.55
2023-02-16T17:22:23.350Z,100689.13
2023-02-16T17:24:58.856Z,100689.13
2023-02-16T17:27:37.792Z,100692.67
2023-02-16T17:30:20.487Z,100694.05
2023-02-16T17:32:57.123Z,100693.94
2023-02-16T17:35:34.698Z,100689.13
2023-02-16T17:38:21.430Z,100688.02
2023-02-16T17:41:03.283Z,100687.48
2023-02-16T17:43:39.717Z,100686.11
2023-02-16T17:46:28.730Z,100687.08
2023-02-16T17:49:07.597Z,100690.11
2023-02-16T17:52:05.521Z,100686.45
2023-02-16T17:54:44.112Z,100684.55
2023-02-16T17:57:26.697Z,100683.27
2023-02-16T18:00:05.417Z,100682.80
2023-02-16T18:02:42.304Z,100681.80
2023-02-16T18:05:18.058Z,100688.22
2023-02-16T18:07:57.264Z,100686.77
2023-02-16T18:10:40.308Z,100691.52
2023-02-16T18:13:17.835Z,100693.38
2023-02-16T18:15:57.114Z,100692.52
2023-02-16T18:18:40.601Z,100692.14
2023-02-16T18:21:18.235Z,100690.98
2023-02-16T18:23:55.962Z,100688.27
2023-02-16T18:26:35.696Z,100687.45
2023-02-16T18:29:15.318Z,100688.48
2023-02-16T18:31:54.345Z,100685.70
2023-02-16T18:34:40.702Z,100684.96
2023-02-16T18:37:26.752Z,100683.55
2023-02-16T18:40:05.465Z,100685.58
2023-02-16T18:42:46.586Z,100686.95
2023-02-16T18:45:30.017Z,100689.28
2023-02-16T18:48:08.766Z,100685.70
2023-02-16T18:50:49.713Z,100684.42
2023-02-16T18:53:25.515Z,100683.13
2023-02-16T18:56:30.625Z,100682.84
2023-02-16T18:59:09.837Z,100685.46
2023-02-16T19:01:46.246Z,100690.77
2023-02-16T19:04:26.111Z,100695.21
2023-02-16T19:07:03.496Z,100692.59
2023-02-16T19:09:42.623Z,100689.15
2023-02-16T19:12:32.510Z,100687.86
2023-02-16T19:15:11.556Z,100686.77
2023-02-16T19:17:51.467Z,100684.08
2023-02-16T19:20:38.252Z,100683.69
2023-02-16T19:23:16.842Z,100683.86
2023-02-16T19:25:55.832Z,100684.77
2023-02-16T19:28:33.543Z,100680.62
2023-02-16T19:31:19.372Z,100681.36
2023-02-16T19:33:57.899Z,100678.08
2023-02-16T19:36:38.397Z,100678.24
2023-02-16T19:39:20.824Z,100677.61
2023-02-16T19:42:00.618Z,100679.31
2023-02-16T19:44:47.440Z,100677.69
2023-02-16T19:47:25.656Z,100672.08
2023-02-16T19:50:05.208Z,100669.63
2023-02-16T19:52:57.318Z,100668.91
2023-02-16T19:55:35.377Z,100668.36
2023-02-16T19:58:15.405Z,100669.10
2023-02-16T20:01:02.200Z,100672.26
2023-02-16T20:03:43.267Z,100674.48
2023-02-16T20:06:40.420Z,100670.98
2023-02-16T20:09:24.420Z,100673.39
2023-02-16T20:12:16.894Z,100675.52
2023-02-16T20:14:56.872Z,100679.27
2023-02-16T20:17:37.054Z,100678.15
2023-02-16T20:20:18.863Z,100677.60
2023-02-16T20:22:57.330Z,100673.98
2023-02-16T20:25:36.249Z,100674.34
2023-02-16T20:28:14.133Z,100676.98
2023-02-16T20:30:53.082Z,100678.19
2023-02-16T20:33:35.751Z,100675.73
2023-02-16T20:36:14.307Z,100674.67
2023-02-16T20:38:54.549Z,100674.74
2023-02-16T20:41:36.238Z,100678.14
2023-02-16T20:44:15.435Z,100678.08
2023-02-16T20:46:56.444Z,100677.86
2023-02-16T20:49:35.163Z,100681.27
2023-02-16T20:52:13.166Z,100682.23
2023-02-16T20:54:50.741Z,100682.02
2023-02-16T20:57:31.192Z,100679.85
2023-02-16T21:00:14.093Z,100673.42
2023-02-16T21:02:57.825Z,100677.48
2023-02-16T21:05:35.931Z,100675.27
2023-02-16T21:08:23.250Z,100671.81
2023-02-16T21:11:00.091Z,100674.22
2023-02-16T21:13:40.904Z,100670.69
2023-02-16T21:16:16.762Z,100673.55
2023-02-16T21:18:54.138Z,100671.38
2023-02-16T21:21:34.499Z,100674.13
2023-02-16T21:24:12.261Z,100673.16
2023-02-16T21:26:49.275Z,100673.41
2023-02-16T21:29:32.861Z,100669.31
2023-02-16T21:32:08.188Z,100666.23
2023-02-16T21:34:44.090Z,100667.10
2023-02-16T21:37:19.158Z,100667.66
2023-02-16T21:40:11.195Z,100665.58
2023-02-16T21:42:46.632Z,100660.65
2023-02-16T21:45:21.732Z,100658.75
2023-02-16T21:48:12.798Z,100656.73
2023-02-16T21:50:46.788Z,100656.82
2023-02-16T21:53:21.627Z,100658.20
2023-02-16T21:56:13.186Z,100656.86
2023-02-16T21:58:48.477Z,100653.30
2023-02-16T22:01:27.079Z,100652.53
2023-02-16T22:04:02.223Z,100650.98
2023-02-16T22:06:39.608Z,100651.42
2023-02-16T22:09:15.924Z,100651.19
2023-02-16T22:11:50.611Z,100649.20
2023-02-16T22:14:24.622Z,100648.16
2023-02-16T22:16:58.176Z,100648.29
2023-02-16T22:19:31.931Z,100649.33
2023-02-16T22:22:05.723Z,100652.02
2023-02-16T22:24:39.483Z,100652.65
2023-02-16T22:27:13.382Z,100652.15
2023-02-16T22:29:47.626Z,100655.11
2023-02-16T22:32:31.220Z,100658.67
2023-02-16T22:35:16.493Z,100659.59
2023-02-16T22:37:50.131Z,100654.52
2023-02-16T22:40:27.217Z,100654.02
2023-02-16T22:43:00.992Z,100653.52
2023-02-16T22:45:35.048Z,100653.81
2023-02-16T22:48:09.249Z,100650.31
2023-02-16T22:50:43.132Z,100651.23
2023-02-16T22:53:17.208Z,100646.85
2023-02-16T22:55:51.101Z,100644.69
2023-02-16T22:58:25.287Z,100644.11
2023-02-16T23:00:59.122Z,100644.08
2023-02-16T23:03:32.650Z,100642.33
2023-02-16T23:06:15.989Z,100641.87
2023-02-16T23:08:53.428Z,100639.42
2023-02-16T23:11:29.009Z,100640.14
2023-02-16T23:14:02.964Z,100641.21
2023-02-16T23:16:36.938Z,100640.35
2023-02-16T23:19:13.110Z,100639.73
2023-02-16T23:21:46.674Z,100636.70
2023-02-16T23:24:22.156Z,100636.65
2023-02-16T23:26:56.750Z,100638.65
2023-02-16T23:29:31.823Z,100638.98
2023-02-16T23:32:06.112Z,100641.98
2023-02-16T23:34:39.979Z,100641.15
2023-02-16T23:37:13.721Z,100637.25
2023-02-16T23:39:48.174Z,100632.65
2023-02-16T23:42:22.031Z,100632.10
2023-02-16T23:44:56.666Z,100630.77
2023-02-16T23:47:30.415Z,100633.67
2023-02-16T23:50:04.119Z,100634.80
2023-02-16T23:52:37.889Z,100637.91
2023-02-16T23:55:11.852Z,100640.86
2023-02-16T23:57:45.601Z,100641.98
